createdAt,value
2022-11-03T00:01:57.152Z,101053.41
2022-11-03T00:04:25.887Z,101051.69
2022-11-03T00:06:55.730Z,101046.53
2022-11-03T00:09:27.098Z,101043.81
2022-11-03T00:11:56.204Z,101048.09
2022-11-03T00:14:24.513Z,101050.63
2022-11-03T00:16:57.067Z,101046.13
2022-11-03T00:19:26.834Z,101047.75
2022-11-03T00:21:55.107Z,101050.31
2022-11-03T00:24:23.806Z,101055.53
2022-11-03T00:26:52.451Z,101059.91
2022-11-03T00:29:21.654Z,101058.13
2022-11-03T00:31:49.877Z,101044.88
2022-11-03T00:34:22.153Z,101050.16
2022-11-03T00:36:50.349Z,101055.47
2022-11-03T00:39:18.933Z,101060.66
2022-11-03T00:41:47.232Z,101062.19
2022-11-03T00:44:15.426Z,101055.97
2022-11-03T00:46:43.878Z,101051.53
2022-11-03T00:49:12.044Z,101055.03
2022-11-03T00:51:41.654Z,101038.28
2022-11-03T00:54:10.506Z,101049.88
2022-11-03T00:56:40.404Z,101049.12
2022-11-03T00:59:10.639Z,101050.13
2022-11-03T01:01:46.040Z,101046.66
2022-11-03T01:04:34.596Z,101045.81
2022-11-03T01:07:06.142Z,101045.97
2022-11-03T01:09:37.053Z,101044.25
2022-11-03T01:12:08.240Z,101048.69
2022-11-03T01:14:41.453Z,101038.09
2022-11-03T01:17:12.218Z,101036.38
2022-11-03T01:19:40.542Z,101034.66
2022-11-03T01:22:11.077Z,101031.16
2022-11-03T01:24:41.261Z,101033.94
2022-11-03T01:27:10.217Z,101025.19
2022-11-03T01:29:38.385Z,101025.19
2022-11-03T01:32:08.395Z,101015.47
2022-11-03T01:34:37.885Z,101019.91
2022-11-03T01:37:07.220Z,101010.16
2022-11-03T01:39:37.233Z,101013.59
2022-11-03T01:42:05.670Z,101005.72
2022-11-03T01:44:36.697Z,101007.44
2022-11-03T01:47:15.847Z,101005.66
2022-11-03T01:49:49.825Z,100995.88
2022-11-03T01:52:23.928Z,100999.37
2022-11-03T01:55:00.875Z,100995.88
2022-11-03T01:57:35.652Z,100987.00
2022-11-03T02:00:06.634Z,100990.56
2022-11-03T02:02:41.367Z,100986.19
2022-11-03T02:05:12.011Z,100981.81
2022-11-03T02:07:45.404Z,100987.97
2022-11-03T02:10:15.149Z,100983.59
2022-11-03T02:12:45.167Z,100983.59
2022-11-03T02:15:18.745Z,100978.22
2022-11-03T02:17:48.914Z,100970.28
2022-11-03T02:20:20.705Z,100967.62
2022-11-03T02:23:05.718Z,100970.28
2022-11-03T02:25:43.422Z,100963.94
2022-11-03T02:28:17.556Z,100952.63
2022-11-03T02:30:50.962Z,100952.84
2022-11-03T02:33:32.254Z,100944.12
2022-11-03T02:36:07.912Z,100931.91
2022-11-03T02:38:45.271Z,100932.03
2022-11-03T02:41:16.842Z,100929.38
2022-11-03T02:43:47.485Z,100924.16
2022-11-03T02:46:17.378Z,100925.78
2022-11-03T02:48:46.886Z,100925.78
2022-11-03T02:51:15.089Z,100909.84
2022-11-03T02:53:49.079Z,100906.19
2022-11-03T02:56:22.769Z,100905.25
2022-11-03T02:58:57.295Z,100910.41
2022-11-03T03:01:34.610Z,100905.88
2022-11-03T03:04:06.494Z,100903.09
2022-11-03T03:06:40.464Z,100903.03
2022-11-03T03:09:17.150Z,100898.50
2022-11-03T03:11:50.066Z,100905.38
2022-11-03T03:14:21.303Z,100896.50
2022-11-03T03:16:59.161Z,100889.31
2022-11-03T03:19:39.084Z,100892.75
2022-11-03T03:22:17.821Z,100896.16
2022-11-03T03:24:53.532Z,100890.78
2022-11-03T03:27:27.861Z,100886.34
2022-11-03T03:29:59.874Z,100875.69
2022-11-03T03:32:32.262Z,100877.50
2022-11-03T03:35:03.384Z,100863.34
2022-11-03T03:37:35.464Z,100870.53
2022-11-03T03:40:10.184Z,100868.81
2022-11-03T03:42:42.885Z,100866.25
2022-11-03T03:45:13.320Z,100865.56
2022-11-03T03:47:42.208Z,100872.56
2022-11-03T03:50:10.804Z,100867.28
2022-11-03T03:52:40.129Z,100863.69
2022-11-03T03:55:18.020Z,100867.09
2022-11-03T03:57:47.760Z,100868.81
2022-11-03T04:00:17.089Z,100858.31
2022-11-03T04:02:45.517Z,100864.53
2022-11-03T04:05:14.146Z,100860.25
2022-11-03T04:07:48.130Z,100859.41
2022-11-03T04:10:17.167Z,100863.84
2022-11-03T04:13:04.969Z,100856.81
2022-11-03T04:16:03.106Z,100861.34
2022-11-03T04:18:49.069Z,100857.84
2022-11-03T04:21:34.954Z,100859.72
2022-11-03T04:24:03.261Z,100860.72
2022-11-03T04:26:31.746Z,100859.88
2022-11-03T04:29:03.204Z,100854.69
2022-11-03T04:31:36.523Z,100858.38
2022-11-03T04:34:06.328Z,100849.66
2022-11-03T04:36:34.895Z,100850.59
2022-11-03T04:39:05.460Z,100844.53
2022-11-03T04:41:34.720Z,100849.81
2022-11-03T04:44:12.925Z,100836.63
2022-11-03T04:46:41.549Z,100840.19
2022-11-03T04:49:15.759Z,100848.22
2022-11-03T04:51:44.416Z,100844.72
2022-11-03T04:54:17.873Z,100844.72
2022-11-03T04:56:46.156Z,100842.16
2022-11-03T04:59:17.981Z,100836.87
2022-11-03T05:01:47.350Z,100822.84
2022-11-03T05:04:18.765Z,100828.16
2022-11-03T05:06:52.484Z,100825.59
2022-11-03T05:09:25.660Z,100828.22
2022-11-03T05:11:54.237Z,100824.78
2022-11-03T05:14:27.185Z,100822.28
2022-11-03T05:16:56.866Z,100816.31
2022-11-03T05:19:28.377Z,100805.84
2022-11-03T05:22:01.036Z,100795.50
2022-11-03T05:24:32.346Z,100792.94
2022-11-03T05:27:01.390Z,100790.38
2022-11-03T05:29:36.018Z,100791.22
2022-11-03T05:32:05.125Z,100790.38
2022-11-03T05:34:40.705Z,100789.59
2022-11-03T05:37:26.705Z,100779.91
2022-11-03T05:39:58.644Z,100773.72
2022-11-03T05:42:33.072Z,100764.03
2022-11-03T05:45:05.767Z,100773.72
2022-11-03T05:47:37.401Z,100779.84
2022-11-03T05:50:17.787Z,100781.56
2022-11-03T05:52:47.381Z,100778.12
2022-11-03T05:55:26.777Z,100773.91
2022-11-03T05:57:56.803Z,100765.22
2022-11-03T06:00:34.307Z,100768.72
2022-11-03T06:03:03.147Z,100765.13
2022-11-03T06:05:33.537Z,100766.06
2022-11-03T06:08:04.099Z,100774.09
2022-11-03T06:10:35.836Z,100771.34
2022-11-03T06:13:10.969Z,100762.41
2022-11-03T06:15:44.479Z,100761.47
2022-11-03T06:18:17.265Z,100768.47
2022-11-03T06:20:52.573Z,100763.97
2022-11-03T06:23:21.877Z,100764.84
2022-11-03T06:25:53.208Z,100762.09
2022-11-03T06:28:24.923Z,100760.16
2022-11-03T06:30:54.845Z,100754.66
2022-11-03T06:33:26.788Z,100755.34
2022-11-03T06:36:00.157Z,100759.59
2022-11-03T06:38:30.617Z,100755.03
2022-11-03T06:40:59.936Z,100763.66
2022-11-03T06:43:36.594Z,100766.16
2022-11-03T06:46:15.207Z,100757.06
2022-11-03T06:48:43.289Z,100762.87
2022-11-03T06:51:17.412Z,100753.94
2022-11-03T06:53:45.810Z,100752.75
2022-11-03T06:56:17.151Z,100743.72
2022-11-03T06:58:46.770Z,100743.53
2022-11-03T07:01:19.658Z,100734.56
2022-11-03T07:03:47.969Z,100729.91
2022-11-03T07:06:21.266Z,100721.69
2022-11-03T07:08:53.706Z,100719.69
2022-11-03T07:11:25.315Z,100714.84
2022-11-03T07:13:56.779Z,100720.53
2022-11-03T07:16:30.830Z,100716.62
2022-11-03T07:19:01.048Z,100715.19
2022-11-03T07:21:35.699Z,100705.88
2022-11-03T07:24:13.896Z,100714.97
2022-11-03T07:26:42.522Z,100707.44
2022-11-03T07:29:17.005Z,100714.63
2022-11-03T07:31:46.931Z,100711.19
2022-11-03T07:34:20.606Z,100709.53
2022-11-03T07:36:55.432Z,100710.53
2022-11-03T07:39:25.005Z,100705.28
2022-11-03T07:41:54.055Z,100699.78
2022-11-03T07:44:22.530Z,100696.03
2022-11-03T07:46:52.168Z,100696.91
2022-11-03T07:49:28.648Z,100696.09
2022-11-03T07:51:58.353Z,100691.34
2022-11-03T07:54:31.352Z,100683.31
2022-11-03T07:57:01.588Z,100682.38
2022-11-03T07:59:34.064Z,100686.59
2022-11-03T08:02:04.211Z,100678.66
2022-11-03T08:04:36.378Z,100675.75
2022-11-03T08:07:04.648Z,100678.34
2022-11-03T08:09:33.181Z,100677.34
2022-11-03T08:12:01.459Z,100675.56
2022-11-03T08:14:31.503Z,100673.97
2022-11-03T08:17:00.166Z,100668.66
2022-11-03T08:19:30.071Z,100669.41
2022-11-03T08:21:58.475Z,100665.66
2022-11-03T08:24:26.982Z,100659.44
2022-11-03T08:26:55.357Z,100651.09
2022-11-03T08:29:25.170Z,100648.09
2022-11-03T08:31:53.659Z,100645.91
2022-11-03T08:34:21.993Z,100639.66
2022-11-03T08:36:51.604Z,100637.91
2022-11-03T08:39:20.070Z,100634.41
2022-11-03T08:41:55.308Z,100635.44
2022-11-03T08:44:41.670Z,100633.44
2022-11-03T08:47:10.121Z,100633.09
2022-11-03T08:49:39.200Z,100631.72
2022-11-03T08:52:08.736Z,100627.84
2022-11-03T08:54:36.898Z,100620.69
2022-11-03T08:57:05.605Z,100618.75
2022-11-03T08:59:33.812Z,100610.44
2022-11-03T09:02:02.034Z,100611.19
2022-11-03T09:04:30.580Z,100609.06
2022-11-03T09:06:59.143Z,100595.31
2022-11-03T09:12:17.237Z,100594.59
2022-11-03T09:14:45.426Z,100586.37
2022-11-03T09:17:13.670Z,100592.41
2022-11-03T09:19:42.205Z,100585.53
2022-11-03T09:22:12.371Z,100573.19
2022-11-03T09:24:41.908Z,100574.75
2022-11-03T09:27:11.234Z,100559.37
2022-11-03T09:30:06.516Z,100564.22
2022-11-03T09:32:28.028Z,100550.06
2022-11-03T09:34:56.391Z,100559.72
2022-11-03T09:37:24.797Z,100544.78
2022-11-03T09:39:54.652Z,100540.12
2022-11-03T09:42:23.642Z,100535.34
2022-11-03T09:44:54.177Z,100537.91
2022-11-03T09:47:29.433Z,100536.19
2022-11-03T09:49:58.843Z,100529.41
2022-11-03T09:52:27.518Z,100523.75
2022-11-03T09:54:57.133Z,100526.31
2022-11-03T09:57:28.387Z,100519.38
2022-11-03T09:59:57.143Z,100520.09
2022-11-03T10:02:29.432Z,100500.47
2022-11-03T10:05:00.224Z,100498.37
2022-11-03T10:07:31.174Z,100498.78
2022-11-03T10:10:02.254Z,100493.28
2022-11-03T10:12:38.099Z,100493.44
2022-11-03T10:15:14.305Z,100488.34
2022-11-03T10:17:43.770Z,100486.97
2022-11-03T10:20:13.500Z,100481.47
2022-11-03T10:22:43.153Z,100466.22
2022-11-03T10:25:36.181Z,100464.22
2022-11-03T10:28:20.330Z,100459.72
2022-11-03T10:33:40.563Z,100453.53
2022-11-03T10:36:24.548Z,100454.94
2022-11-03T10:38:53.129Z,100460.16
2022-11-03T10:41:25.613Z,100458.91
2022-11-03T10:44:18.803Z,100446.19
2022-11-03T10:46:57.924Z,100451.84
2022-11-03T10:49:26.412Z,100440.69
2022-11-03T10:52:00.915Z,100436.75
2022-11-03T10:54:29.907Z,100433.66
2022-11-03T10:56:59.844Z,100430.81
2022-11-03T10:59:34.070Z,100422.19
2022-11-03T11:02:03.191Z,100418.81
2022-11-03T11:04:34.092Z,100423.72
2022-11-03T11:07:03.361Z,100409.13
2022-11-03T11:09:31.620Z,100407.72
2022-11-03T11:12:03.677Z,100400.47
2022-11-03T11:14:39.803Z,100393.47
2022-11-03T11:17:41.933Z,100393.31
2022-11-03T11:20:36.893Z,100389.31
2022-11-03T11:23:49.017Z,100390.13
2022-11-03T11:26:31.641Z,100379.72
2022-11-03T11:29:43.936Z,100377.31
2022-11-03T11:32:52.919Z,100377.31
2022-11-03T11:36:04.379Z,100371.84
2022-11-03T11:39:11.381Z,100364.19
2022-11-03T11:42:08.917Z,100365.47
2022-11-03T11:44:58.248Z,100352.03
2022-11-03T11:47:46.367Z,100352.28
2022-11-03T11:50:33.047Z,100344.12
2022-11-03T11:53:26.120Z,100336.91
2022-11-03T11:55:58.991Z,100327.97
2022-11-03T11:58:42.694Z,100323.12
2022-11-03T12:01:23.878Z,100314.06
2022-11-03T12:03:54.893Z,100310.91
2022-11-03T12:06:34.585Z,100300.06
2022-11-03T12:09:07.737Z,100285.81
2022-11-03T12:11:50.239Z,100290.44
2022-11-03T12:14:26.299Z,100289.75
2022-11-03T12:16:55.054Z,100282.06
2022-11-03T12:19:44.953Z,100273.66
2022-11-03T12:22:33.777Z,100277.66
2022-11-03T12:25:04.183Z,100261.84
2022-11-03T12:27:44.327Z,100253.19
2022-11-03T12:30:18.906Z,100246.69
2022-11-03T12:32:47.915Z,100246.25
2022-11-03T12:35:17.203Z,100227.94
2022-11-03T12:37:46.199Z,100228.81
2022-11-03T12:40:15.098Z,100224.47
2022-11-03T12:42:44.958Z,100212.03
2022-11-03T12:45:14.560Z,100208.19
2022-11-03T12:47:43.025Z,100203.50
2022-11-03T12:50:12.025Z,100194.69
2022-11-03T12:52:40.229Z,100196.53
2022-11-03T12:55:09.016Z,100190.72
2022-11-03T12:57:37.625Z,100182.31
2022-11-03T13:00:09.863Z,100181.78
2022-11-03T13:02:39.787Z,100182.59
2022-11-03T13:05:09.014Z,100172.47
2022-11-03T13:07:37.299Z,100162.53
2022-11-03T13:10:06.770Z,100153.25
2022-11-03T13:12:36.712Z,100155.25
2022-11-03T13:15:10.164Z,100150.88
2022-11-03T13:18:07.046Z,100144.12
2022-11-03T13:20:27.934Z,100140.09
2022-11-03T13:22:56.490Z,100137.69
2022-11-03T13:25:25.289Z,100130.28
2022-11-03T13:27:54.739Z,100127.06
2022-11-03T13:30:26.491Z,100119.47
2022-11-03T13:32:54.835Z,100116.38
2022-11-03T13:35:23.470Z,100102.41
2022-11-03T13:37:51.705Z,100101.87
2022-11-03T13:43:09.599Z,100090.41
2022-11-03T13:45:39.582Z,100077.75
2022-11-03T13:51:00.668Z,100066.56
2022-11-03T13:56:21.843Z,100047.25
2022-11-03T14:01:42.009Z,100033.87
2022-11-03T14:07:02.984Z,100027.34
2022-11-03T14:09:31.586Z,100020.91
2022-11-03T14:12:17.264Z,100015.50
2022-11-03T14:14:48.344Z,100020.47
2022-11-03T14:17:17.932Z,100015.72
2022-11-03T14:19:52.066Z,99998.91
2022-11-03T14:22:21.101Z,100002.59
2022-11-03T14:24:49.754Z,100001.59
2022-11-03T14:27:18.402Z,100002.44
2022-11-03T14:29:49.684Z,99996.38
2022-11-03T14:32:20.290Z,99995.53
2022-11-03T14:34:48.926Z,99992.00
2022-11-03T14:37:17.652Z,99998.53
2022-11-03T14:39:45.986Z,99997.88
2022-11-03T14:42:15.843Z,99988.25
2022-11-03T14:44:46.083Z,99984.72
2022-11-03T14:47:17.607Z,99980.50
2022-11-03T14:49:47.461Z,99961.03
2022-11-03T14:52:17.000Z,99962.16
2022-11-03T14:54:45.718Z,99950.38
2022-11-03T14:57:13.822Z,99949.28
2022-11-03T14:59:42.000Z,99935.78
2022-11-03T15:02:11.656Z,99932.16
2022-11-03T15:04:39.997Z,99916.28
2022-11-03T15:07:09.471Z,99904.63
2022-11-03T15:09:37.997Z,99889.59
2022-11-03T15:12:06.485Z,99886.87
2022-11-03T15:14:34.972Z,99882.25
2022-11-03T15:17:03.453Z,99893.22
2022-11-03T15:19:31.659Z,99895.13
2022-11-03T15:21:59.951Z,99899.38
2022-11-03T15:27:19.938Z,99912.53
2022-11-03T15:29:48.362Z,99907.38
2022-11-03T15:32:16.487Z,99911.63
2022-11-03T15:34:44.665Z,99904.22
2022-11-03T15:37:13.350Z,99904.78
2022-11-03T15:39:42.785Z,99901.28
2022-11-03T15:42:10.938Z,99891.88
2022-11-03T15:44:39.335Z,99891.59
2022-11-03T15:47:08.026Z,99872.63
2022-11-03T15:49:36.171Z,99872.06
2022-11-03T15:52:05.106Z,99873.59
2022-11-03T15:54:36.169Z,99867.31
2022-11-03T15:57:08.371Z,99861.00
2022-11-03T15:59:36.601Z,99858.31
2022-11-03T16:02:14.050Z,99864.22
2022-11-03T16:04:53.647Z,99854.09
2022-11-03T16:07:21.784Z,99846.78
2022-11-03T16:09:50.414Z,99840.84
2022-11-03T16:12:20.307Z,99834.13
2022-11-03T16:14:48.469Z,99831.03
2022-11-03T16:17:16.674Z,99824.13
2022-11-03T16:19:45.275Z,99814.72
2022-11-03T16:22:13.546Z,99805.16
2022-11-03T16:24:43.458Z,99801.75
2022-11-03T16:27:14.163Z,99796.84
2022-11-03T16:29:44.230Z,99787.97
2022-11-03T16:32:12.716Z,99777.28
2022-11-03T16:34:41.136Z,99767.28
2022-11-03T16:37:09.539Z,99763.94
2022-11-03T16:39:39.216Z,99758.44
2022-11-03T16:42:07.446Z,99760.66
2022-11-03T16:44:35.772Z,99755.56
2022-11-03T16:47:05.966Z,99755.16
2022-11-03T16:49:34.256Z,99751.94
2022-11-03T16:52:02.663Z,99754.16
2022-11-03T16:54:31.097Z,99739.53
2022-11-03T16:56:59.255Z,99739.25
2022-11-03T16:59:27.686Z,99726.19
2022-11-03T17:01:56.963Z,99717.59
2022-11-03T17:04:26.678Z,99707.91
2022-11-03T17:06:55.030Z,99704.69
2022-11-03T17:09:23.553Z,99703.84
2022-11-03T17:11:51.784Z,99702.41
2022-11-03T17:14:20.026Z,99697.34
2022-11-03T17:16:48.749Z,99688.78
2022-11-03T17:19:17.286Z,99679.19
2022-11-03T17:21:47.320Z,99683.84
2022-11-03T17:24:16.013Z,99686.09
2022-11-03T17:26:53.703Z,99679.06
2022-11-03T17:29:25.164Z,99676.41
2022-11-03T17:31:53.470Z,99677.66
2022-11-03T17:34:24.866Z,99677.94
2022-11-03T17:36:54.929Z,99672.84
2022-11-03T17:39:29.215Z,99666.09
2022-11-03T17:42:11.711Z,99660.22
2022-11-03T17:44:40.146Z,99657.94
2022-11-03T17:47:08.348Z,99668.06
2022-11-03T17:49:36.514Z,99669.19
2022-11-03T17:52:07.276Z,99665.91
2022-11-03T17:54:35.541Z,99649.34
2022-11-03T17:57:05.116Z,99646.12
2022-11-03T17:59:34.429Z,99627.81
2022-11-03T18:02:03.946Z,99620.94
2022-11-03T18:04:32.542Z,99630.91
2022-11-03T18:07:01.144Z,99646.44
2022-11-03T18:09:30.833Z,99647.84
2022-11-03T18:12:19.004Z,99643.87
2022-11-03T18:14:47.431Z,99638.97
2022-11-03T18:17:16.172Z,99630.50
2022-11-03T18:19:44.510Z,99630.94
2022-11-03T18:22:12.750Z,99617.97
2022-11-03T18:24:42.898Z,99613.91
2022-11-03T18:27:13.514Z,99612.59
2022-11-03T18:29:42.113Z,99606.72
2022-11-03T18:32:17.152Z,99603.59
2022-11-03T18:34:47.198Z,99599.38
2022-11-03T18:37:23.366Z,99594.47
2022-11-03T18:39:59.016Z,99593.72
2022-11-03T18:42:38.268Z,99580.69
2022-11-03T18:45:18.626Z,99579.00
2022-11-03T18:47:47.525Z,99580.25
2022-11-03T18:50:19.192Z,99569.97
2022-11-03T18:52:52.391Z,99569.41
2022-11-03T18:55:25.279Z,99566.03
2022-11-03T18:57:56.244Z,99560.72
2022-11-03T19:00:25.736Z,99552.59
2022-11-03T19:02:54.571Z,99543.63
2022-11-03T19:05:23.454Z,99541.94
2022-11-03T19:07:53.093Z,99555.38
2022-11-03T19:10:23.328Z,99546.78
2022-11-03T19:12:53.467Z,99540.62
2022-11-03T19:15:24.732Z,99537.13
2022-11-03T19:17:57.186Z,99526.59
2022-11-03T19:20:25.823Z,99520.56
2022-11-03T19:22:54.565Z,99515.25
2022-11-03T19:25:22.950Z,99512.13
2022-11-03T19:27:51.364Z,99505.37
2022-11-03T19:30:21.710Z,99506.03
2022-11-03T19:32:52.935Z,99506.47
2022-11-03T19:35:24.055Z,99506.09
2022-11-03T19:38:00.767Z,99511.81
2022-11-03T19:40:30.438Z,99497.06
2022-11-03T19:42:58.293Z,99492.28
2022-11-03T19:45:29.462Z,99484.25
2022-11-03T19:50:49.655Z,99476.25
2022-11-03T19:53:22.649Z,99472.16
2022-11-03T19:55:51.253Z,99461.66
2022-11-03T19:58:21.877Z,99470.62
2022-11-03T20:00:52.495Z,99476.31
2022-11-03T20:03:23.131Z,99474.03
2022-11-03T20:05:54.515Z,99469.84
2022-11-03T20:08:26.237Z,99462.84
2022-11-03T20:10:54.831Z,99457.25
2022-11-03T20:13:25.799Z,99461.72
2022-11-03T20:16:04.710Z,99460.53
2022-11-03T20:18:43.902Z,99454.88
2022-11-03T20:21:17.237Z,99446.97
2022-11-03T20:23:46.634Z,99440.66
2022-11-03T20:26:17.905Z,99440.44
2022-11-03T20:28:47.513Z,99428.81
2022-11-03T20:31:18.249Z,99426.31
2022-11-03T20:33:47.058Z,99434.50
2022-11-03T20:36:17.777Z,99434.63
2022-11-03T20:38:49.649Z,99432.38
2022-11-03T20:41:18.310Z,99439.66
2022-11-03T20:43:49.626Z,99426.44
2022-11-03T20:46:24.710Z,99424.47
2022-11-03T20:48:56.813Z,99414.59
2022-11-03T20:51:27.874Z,99405.28
2022-11-03T20:53:56.793Z,99410.34
2022-11-03T20:56:26.629Z,99411.09
2022-11-03T20:58:55.239Z,99409.97
2022-11-03T21:01:27.450Z,99407.31
2022-11-03T21:04:00.204Z,99410.97
2022-11-03T21:06:31.226Z,99413.75
2022-11-03T21:09:00.360Z,99410.12
2022-11-03T21:11:31.003Z,99402.84
2022-11-03T21:14:03.076Z,99386.91
2022-11-03T21:16:50.992Z,99391.97
2022-11-03T21:19:39.463Z,99396.06
2022-11-03T21:25:04.313Z,99404.13
2022-11-03T21:27:33.132Z,99400.78
2022-11-03T21:30:02.089Z,99392.44
2022-11-03T21:32:32.116Z,99398.34
2022-11-03T21:35:01.730Z,99393.72
2022-11-03T21:37:29.924Z,99385.75
2022-11-03T21:39:58.500Z,99387.47
2022-11-03T21:42:44.210Z,99383.09
2022-11-03T21:45:13.412Z,99393.63
2022-11-03T21:48:07.447Z,99401.19
2022-11-03T21:50:37.717Z,99400.09
2022-11-03T21:53:07.183Z,99407.84
2022-11-03T21:55:35.897Z,99414.69
2022-11-03T21:58:05.085Z,99410.09
2022-11-03T22:00:34.246Z,99414.16
2022-11-03T22:03:04.313Z,99406.78
2022-11-03T22:05:32.590Z,99411.69
2022-11-03T22:08:00.764Z,99402.22
2022-11-03T22:10:29.767Z,99386.97
2022-11-03T22:12:57.941Z,99392.06
2022-11-03T22:15:43.765Z,99386.31
2022-11-03T22:18:13.728Z,99384.22
2022-11-03T22:20:59.465Z,99375.87
2022-11-03T22:23:45.419Z,99380.06
2022-11-03T22:26:34.608Z,99379.78
2022-11-03T22:29:19.673Z,99381.22
2022-11-03T22:31:48.082Z,99375.19
2022-11-03T22:34:35.266Z,99362.47
2022-11-03T22:37:03.606Z,99363.16
2022-11-03T22:39:49.584Z,99361.34
2022-11-03T22:42:35.413Z,99352.38
2022-11-03T22:45:21.153Z,99353.34
2022-11-03T22:47:57.099Z,99343.56
2022-11-03T22:50:27.462Z,99332.06
2022-11-03T22:52:55.642Z,99332.34
2022-11-03T22:55:23.314Z,99323.66
2022-11-03T22:57:51.802Z,99326.44
2022-11-03T23:00:23.747Z,99331.19
2022-11-03T23:02:57.950Z,99317.47
2022-11-03T23:05:27.513Z,99320.38
2022-11-03T23:07:56.041Z,99321.34
2022-11-03T23:10:31.292Z,99323.16
2022-11-03T23:13:00.104Z,99330.31
2022-11-03T23:15:34.450Z,99334.94
2022-11-03T23:18:21.863Z,99332.09
2022-11-03T23:21:12.415Z,99328.53
2022-11-03T23:23:58.303Z,99337.22
2022-11-03T23:26:27.922Z,99327.12
2022-11-03T23:28:56.426Z,99329.78
2022-11-03T23:31:24.595Z,99326.41
2022-11-03T23:33:53.056Z,99325.69
2022-11-03T23:36:22.908Z,99334.78
2022-11-03T23:38:51.564Z,99331.28
2022-11-03T23:41:20.766Z,99331.56
2022-11-03T23:43:50.106Z,99326.25
2022-11-03T23:46:37.672Z,99324.56
2022-11-03T23:49:07.314Z,99322.47
2022-11-03T23:51:39.177Z,99312.69
2022-11-03T23:54:09.915Z,99314.34
2022-11-03T23:56:57.091Z,99307.91
2022-11-03T23:59:25.928Z,99310.44
